Time;durP1;ratioP1;P1;durP2;ratioP2;P2;SDS_P1;SDS_P2;PMS_P1;PMS_P2;Temp;Humidity;BMP_temperature;BMP_pressure;BME280_temperature;BME280_humidity;BME280_pressure;Samples;Min_cycle;Max_cycle;Signal;HPM_P1;HPM_P2
2021/10/18 00:00:15;;;;;;;32.43;17.80;;;7.90;99.90;;;;;;5029167;28;20549;-69
2021/10/18 00:02:44;;;;;;;30.17;16.73;;;7.80;99.90;;;;;;5028981;28;20683;-69
2021/10/18 00:05:16;;;;;;;33.30;17.83;;;7.80;99.90;;;;;;5027253;28;20674;-67
2021/10/18 00:07:45;;;;;;;28.80;17.17;;;7.70;99.90;;;;;;5026345;28;20199;-69
2021/10/18 00:10:14;;;;;;;30.67;16.27;;;7.60;99.90;;;;;;5026813;28;20221;-69
2021/10/18 00:12:44;;;;;;;31.37;17.73;;;7.60;99.90;;;;;;5023940;28;20208;-69
2021/10/18 00:15:16;;;;;;;31.13;18.47;;;7.50;99.90;;;;;;5026521;28;20201;-66
2021/10/18 00:17:45;;;;;;;28.87;16.63;;;7.50;99.90;;;;;;5026412;28;20225;-69
2021/10/18 00:20:17;;;;;;;29.10;16.67;;;7.40;99.90;;;;;;5027980;28;20296;-69
2021/10/18 00:22:47;;;;;;;27.00;15.97;;;7.30;99.90;;;;;;5030785;28;20221;-69
2021/10/18 00:25:16;;;;;;;29.67;16.57;;;7.20;99.90;;;;;;5024845;28;20202;-69
2021/10/18 00:27:44;;;;;;;32.90;17.97;;;7.10;99.90;;;;;;5026642;28;20672;-69
2021/10/18 00:30:14;;;;;;;31.57;18.67;;;7.10;99.90;;;;;;5019590;28;20569;-70
2021/10/18 00:32:43;;;;;;;31.37;17.97;;;7.00;99.90;;;;;;5024858;28;20216;-69
2021/10/18 00:35:11;;;;;;;30.73;16.93;;;7.00;99.90;;;;;;5027693;28;20217;-69
2021/10/18 00:37:42;;;;;;;29.47;18.17;;;6.90;99.90;;;;;;5026120;28;20225;-70
2021/10/18 00:40:12;;;;;;;35.30;18.23;;;6.90;99.90;;;;;;5026245;28;20205;-69
2021/10/18 00:42:41;;;;;;;33.47;17.43;;;6.80;99.90;;;;;;5027980;28;20196;-70
2021/10/18 00:45:11;;;;;;;29.80;18.13;;;6.80;99.90;;;;;;5027900;28;20209;-69
2021/10/18 00:47:39;;;;;;;28.90;18.43;;;6.80;99.90;;;;;;5028998;28;20232;-69
2021/10/18 00:50:09;;;;;;;30.93;17.27;;;6.70;99.90;;;;;;5034318;28;20282;-69
2021/10/18 00:52:38;;;;;;;31.90;17.57;;;6.60;99.90;;;;;;5025236;28;20200;-69
2021/10/18 00:55:09;;;;;;;29.33;16.93;;;6.60;99.90;;;;;;5028806;28;20202;-69
2021/10/18 00:57:39;;;;;;;27.47;16.73;;;6.50;99.90;;;;;;5027727;28;20229;-68
2021/10/18 01:00:08;;;;;;;31.60;17.13;;;6.40;99.90;;;;;;5032820;28;20304;-69
2021/10/18 01:02:37;;;;;;;28.70;16.90;;;6.30;99.90;;;;;;5030503;28;20669;-69
2021/10/18 01:05:07;;;;;;;28.13;16.30;;;6.30;99.90;;;;;;5027601;28;20499;-69
2021/10/18 01:07:36;;;;;;;27.90;16.13;;;6.20;99.90;;;;;;5033679;28;20205;-69
2021/10/18 01:10:06;;;;;;;31.20;17.33;;;6.20;99.90;;;;;;5030239;28;20201;-69
2021/10/18 01:12:36;;;;;;;27.90;17.40;;;6.20;99.90;;;;;;5028808;28;20210;-69
2021/10/18 01:15:05;;;;;;;36.00;19.67;;;6.20;99.90;;;;;;5025510;28;20722;-69
2021/10/18 01:17:33;;;;;;;37.33;19.60;;;6.20;99.90;;;;;;5033633;28;20221;-69
2021/10/18 01:20:02;;;;;;;34.23;18.83;;;6.20;99.90;;;;;;5028079;28;20292;-69
2021/10/18 01:22:32;;;;;;;30.30;17.97;;;6.20;99.90;;;;;;5029641;28;20205;-69
2021/10/18 01:25:00;;;;;;;29.10;18.43;;;6.20;99.90;;;;;;5031232;28;20213;-69
2021/10/18 01:27:29;;;;;;;32.00;18.07;;;6.30;99.90;;;;;;5031026;28;20202;-69
2021/10/18 01:29:57;;;;;;;33.07;18.33;;;6.20;99.90;;;;;;5035488;28;20201;-70
2021/10/18 01:32:25;;;;;;;34.43;19.33;;;6.20;99.90;;;;;;5029900;28;20197;-69
2021/10/18 01:34:54;;;;;;;36.50;20.23;;;6.20;99.90;;;;;;5027686;28;20201;-69
2021/10/18 01:37:22;;;;;;;46.13;21.20;;;6.20;99.90;;;;;;5025975;28;20209;-69
2021/10/18 01:39:52;;;;;;;39.97;21.07;;;6.30;99.90;;;;;;5027504;28;20691;-69
2021/10/18 01:42:21;;;;;;;37.57;20.10;;;6.50;99.90;;;;;;5030283;28;20197;-69
2021/10/18 01:44:49;;;;;;;38.50;21.27;;;6.60;99.90;;;;;;5026655;28;20197;-69
2021/10/18 01:47:17;;;;;;;37.80;21.73;;;6.60;99.90;;;;;;5028857;28;20233;-68
2021/10/18 01:49:46;;;;;;;44.80;20.67;;;6.60;99.90;;;;;;5027799;28;20598;-69
2021/10/18 01:52:14;;;;;;;38.30;21.13;;;6.60;99.90;;;;;;5026372;28;20212;-69
2021/10/18 01:54:42;;;;;;;40.47;20.90;;;6.50;99.90;;;;;;5031742;28;20255;-69
2021/10/18 01:57:12;;;;;;;35.80;21.20;;;6.40;99.90;;;;;;5029965;28;20267;-69
2021/10/18 01:59:41;;;;;;;33.00;19.83;;;6.30;99.90;;;;;;5029701;28;20206;-69
2021/10/18 02:02:09;;;;;;;38.10;21.30;;;6.20;99.90;;;;;;5028538;28;20564;-68
2021/10/18 02:04:58;;;;;;;43.63;21.63;;;6.20;99.90;;;;;;5032634;28;20259;-69
2021/10/18 02:07:26;;;;;;;42.60;23.17;;;6.10;99.90;;;;;;5018792;28;20529;-69
2021/10/18 02:09:55;;;;;;;40.60;21.10;;;6.20;99.90;;;;;;5027111;28;20206;-69
2021/10/18 02:12:25;;;;;;;37.37;21.20;;;6.20;99.90;;;;;;5025953;28;20209;-69
2021/10/18 02:14:53;;;;;;;42.33;22.00;;;6.20;99.90;;;;;;5033973;28;20597;-69
2021/10/18 02:17:22;;;;;;;41.90;21.70;;;6.20;99.90;;;;;;5025123;28;20214;-69
2021/10/18 02:19:50;;;;;;;43.90;21.40;;;6.10;99.90;;;;;;5031774;28;20526;-69
2021/10/18 02:22:18;;;;;;;39.00;21.37;;;6.10;99.90;;;;;;5025890;28;20715;-69
2021/10/18 02:24:46;;;;;;;38.90;21.23;;;6.00;99.90;;;;;;5025300;28;20221;-69
2021/10/18 02:27:15;;;;;;;41.63;21.50;;;6.00;99.90;;;;;;5029474;28;20217;-69
2021/10/18 02:29:44;;;;;;;37.63;20.40;;;5.90;99.90;;;;;;5026119;28;20214;-69
2021/10/18 02:32:13;;;;;;;38.50;20.97;;;5.90;99.90;;;;;;5031733;28;20201;-69
2021/10/18 02:34:41;;;;;;;44.33;21.50;;;5.80;99.90;;;;;;5026308;28;20202;-69
2021/10/18 02:37:10;;;;;;;37.53;20.47;;;5.80;99.90;;;;;;5026457;28;20232;-70
2021/10/18 02:39:38;;;;;;;35.60;20.93;;;5.70;99.90;;;;;;5024400;28;20202;-69
2021/10/18 02:42:06;;;;;;;34.90;20.60;;;5.70;99.90;;;;;;5029962;28;20216;-69
2021/10/18 02:44:35;;;;;;;37.47;20.33;;;5.60;99.90;;;;;;5032146;28;20208;-69
2021/10/18 02:47:05;;;;;;;39.03;20.20;;;5.60;99.90;;;;;;5027532;28;20237;-69
2021/10/18 02:49:33;;;;;;;37.83;19.80;;;5.60;99.90;;;;;;5028341;28;20205;-70
2021/10/18 02:52:03;;;;;;;34.00;19.73;;;5.50;99.90;;;;;;5029540;28;20206;-69
2021/10/18 02:54:31;;;;;;;37.80;20.00;;;5.50;99.90;;;;;;5028851;28;20209;-69
2021/10/18 02:57:00;;;;;;;44.57;21.77;;;5.50;99.90;;;;;;5023533;28;20198;-69
2021/10/18 02:59:28;;;;;;;38.03;20.53;;;5.50;99.90;;;;;;5028107;28;20604;-69
2021/10/18 03:01:57;;;;;;;41.87;23.03;;;5.50;99.90;;;;;;5031055;28;20696;-71
2021/10/18 03:04:27;;;;;;;45.23;23.33;;;5.50;99.90;;;;;;5032341;28;20197;-67
2021/10/18 03:06:55;;;;;;;43.83;22.30;;;5.60;99.90;;;;;;5023721;28;20264;-69
2021/10/18 03:09:23;;;;;;;45.53;22.67;;;5.60;99.90;;;;;;5029882;28;20680;-69
2021/10/18 03:11:52;;;;;;;49.23;23.70;;;5.60;99.90;;;;;;5028277;28;20259;-69
2021/10/18 03:14:21;;;;;;;48.53;24.00;;;5.60;99.90;;;;;;5020918;28;20197;-69
2021/10/18 03:16:49;;;;;;;50.40;24.97;;;5.70;99.90;;;;;;5028907;28;20201;-69
2021/10/18 03:19:18;;;;;;;51.47;24.93;;;5.70;99.90;;;;;;5026598;28;20372;-69
2021/10/18 03:21:48;;;;;;;55.53;25.13;;;5.80;99.90;;;;;;5029600;28;20255;-69
2021/10/18 03:24:16;;;;;;;56.00;26.30;;;6.00;99.90;;;;;;5030504;28;20202;-70
2021/10/18 03:26:45;;;;;;;54.40;25.30;;;6.00;99.90;;;;;;5025790;28;20197;-69
2021/10/18 03:29:13;;;;;;;54.30;25.37;;;6.10;99.90;;;;;;5032298;28;20197;-69
2021/10/18 03:31:42;;;;;;;49.60;25.43;;;6.20;99.90;;;;;;5032556;28;20724;-69
2021/10/18 03:34:10;;;;;;;52.03;25.80;;;6.20;99.90;;;;;;5026228;28;20206;-69
2021/10/18 03:36:38;;;;;;;51.97;24.30;;;6.20;99.90;;;;;;5030336;28;20572;-69
2021/10/18 03:39:11;;;;;;;49.70;25.23;;;6.20;99.90;;;;;;5028673;28;20703;-69
2021/10/18 03:41:39;;;;;;;52.77;24.97;;;6.20;99.90;;;;;;5020111;28;20711;-69
2021/10/18 03:44:07;;;;;;;45.77;25.17;;;6.20;99.90;;;;;;5029114;28;20842;-69
2021/10/18 03:46:36;;;;;;;54.00;25.13;;;6.30;99.90;;;;;;5028227;28;20253;-69
2021/10/18 03:49:06;;;;;;;47.47;24.63;;;6.30;99.90;;;;;;5028884;28;20201;-69
2021/10/18 03:51:35;;;;;;;50.73;24.60;;;6.40;99.90;;;;;;5025756;28;20197;-69
2021/10/18 03:54:03;;;;;;;49.27;25.27;;;6.30;99.90;;;;;;5021806;28;20202;-69
2021/10/18 03:56:35;;;;;;;48.93;24.23;;;6.30;99.90;;;;;;5028317;28;20201;-69
2021/10/18 03:59:06;;;;;;;53.23;24.87;;;6.30;99.90;;;;;;5031616;28;20248;-69
2021/10/18 04:01:35;;;;;;;54.33;24.33;;;6.20;99.90;;;;;;5026907;28;20205;-69
2021/10/18 04:04:03;;;;;;;50.60;25.30;;;6.20;99.90;;;;;;5027847;28;20197;-69
2021/10/18 04:06:32;;;;;;;53.80;25.10;;;6.20;99.90;;;;;;5026698;28;20194;-69
2021/10/18 04:09:00;;;;;;;49.13;24.70;;;6.30;99.90;;;;;;5031257;28;20228;-69
2021/10/18 04:11:28;;;;;;;51.93;24.40;;;6.30;99.90;;;;;;5017826;28;20236;-69
2021/10/18 04:13:58;;;;;;;47.23;24.50;;;6.30;99.90;;;;;;5028199;28;20205;-69
2021/10/18 04:16:27;;;;;;;50.17;24.87;;;6.40;99.90;;;;;;5022883;28;20236;-69
2021/10/18 04:18:55;;;;;;;49.10;25.00;;;6.40;99.90;;;;;;5029824;28;20211;-69
2021/10/18 04:21:23;;;;;;;53.07;25.87;;;6.50;99.90;;;;;;5026809;28;20257;-68
2021/10/18 04:23:52;;;;;;;49.23;24.40;;;6.40;99.90;;;;;;5027272;28;20243;-70
2021/10/18 04:26:20;;;;;;;47.70;24.07;;;6.40;99.90;;;;;;5025476;28;20212;-69
2021/10/18 04:28:49;;;;;;;51.00;25.03;;;6.50;99.90;;;;;;5024820;28;20198;-70
2021/10/18 04:31:18;;;;;;;48.37;24.30;;;6.50;99.90;;;;;;5026254;28;20198;-70
2021/10/18 04:33:47;;;;;;;48.17;24.20;;;6.40;99.90;;;;;;5021165;28;20213;-69
2021/10/18 04:36:16;;;;;;;51.23;24.10;;;6.40;99.90;;;;;;5022265;28;20197;-69
2021/10/18 04:38:44;;;;;;;55.13;24.27;;;6.30;99.90;;;;;;5027571;28;20220;-70
2021/10/18 04:41:12;;;;;;;49.57;24.53;;;6.30;99.90;;;;;;5021462;28;20201;-69
2021/10/18 04:43:40;;;;;;;54.43;24.50;;;6.30;99.90;;;;;;5022448;28;20202;-69
2021/10/18 04:46:09;;;;;;;54.37;25.37;;;6.30;99.90;;;;;;5028142;28;20198;-69
2021/10/18 04:48:39;;;;;;;52.03;24.37;;;6.30;99.90;;;;;;5026566;28;20328;-69
2021/10/18 04:51:07;;;;;;;54.10;24.63;;;6.20;99.90;;;;;;5022931;28;20206;-69
2021/10/18 04:53:36;;;;;;;55.40;24.80;;;6.30;99.90;;;;;;5024374;28;20664;-69
2021/10/18 04:56:05;;;;;;;55.43;25.10;;;6.30;99.90;;;;;;5029196;28;20428;-69
2021/10/18 04:58:34;;;;;;;47.47;22.60;;;6.40;99.90;;;;;;5025843;28;20206;-69
2021/10/18 05:01:03;;;;;;;48.23;24.83;;;6.30;99.90;;;;;;5018030;28;20285;-69
2021/10/18 05:03:32;;;;;;;54.20;24.30;;;6.30;99.90;;;;;;5022247;28;20206;-69
2021/10/18 05:06:04;;;;;;;48.77;23.70;;;6.30;99.90;;;;;;5026968;28;20697;-69
2021/10/18 05:08:33;;;;;;;49.93;24.37;;;6.30;99.90;;;;;;5021581;28;20300;-69
2021/10/18 05:11:01;;;;;;;48.53;23.97;;;6.40;99.90;;;;;;5017344;28;20669;-69
2021/10/18 05:13:30;;;;;;;53.57;24.20;;;6.30;99.90;;;;;;5025520;28;20202;-69
2021/10/18 05:15:59;;;;;;;47.97;23.07;;;6.30;99.90;;;;;;5027409;28;20201;-69
2021/10/18 05:18:27;;;;;;;54.60;24.57;;;6.40;99.90;;;;;;5029994;28;20206;-69
2021/10/18 05:21:47;;;;;;;49.90;23.40;;;6.40;99.90;;;;;;5021188;28;20222;-69
2021/10/18 05:25:07;;;;;;;48.30;23.27;;;6.30;99.90;;;;;;5013645;28;21537;-70
2021/10/18 05:28:26;;;;;;;53.17;23.03;;;6.40;99.90;;;;;;5010366;28;20516;-69
2021/10/18 05:31:45;;;;;;;46.97;23.23;;;6.40;99.90;;;;;;5012787;28;20766;-69
2021/10/18 05:35:06;;;;;;;49.77;24.80;;;6.30;99.90;;;;;;5011591;28;20273;-69
2021/10/18 05:38:26;;;;;;;50.30;23.53;;;6.30;99.90;;;;;;5011290;28;20228;-70
2021/10/18 05:41:44;;;;;;;52.20;23.30;;;6.30;99.90;;;;;;5012233;28;20266;-69
2021/10/18 05:45:04;;;;;;;49.70;23.27;;;6.20;99.90;;;;;;5019456;28;20791;-69
2021/10/18 05:48:22;;;;;;;47.87;23.67;;;6.20;99.90;;;;;;5015164;28;20236;-69
2021/10/18 05:51:42;;;;;;;51.00;23.17;;;6.30;99.90;;;;;;5011716;28;20271;-68
2021/10/18 05:55:05;;;;;;;53.23;23.33;;;6.30;99.90;;;;;;5013269;28;20209;-69
2021/10/18 05:58:25;;;;;;;48.30;22.70;;;6.30;99.90;;;;;;5010532;28;20867;-66
2021/10/18 06:01:45;;;;;;;48.90;22.10;;;6.30;99.90;;;;;;5012086;28;20755;-68
2021/10/18 06:05:04;;;;;;;49.10;23.13;;;6.20;99.90;;;;;;5012952;28;20461;-69
2021/10/18 06:08:23;;;;;;;48.87;22.97;;;6.20;99.90;;;;;;5015373;28;20304;-69
2021/10/18 06:11:45;;;;;;;49.70;24.03;;;6.20;99.90;;;;;;5012124;28;20712;-69
2021/10/18 06:15:06;;;;;;;49.73;23.40;;;6.20;99.90;;;;;;5008858;28;20684;-69
2021/10/18 06:18:28;;;;;;;45.80;22.87;;;6.30;99.90;;;;;;5010865;28;20647;-69
2021/10/18 06:21:46;;;;;;;51.03;22.87;;;6.30;99.90;;;;;;5014672;28;20268;-69
2021/10/18 06:25:06;;;;;;;51.17;23.23;;;6.40;99.90;;;;;;5016573;28;20201;-69
2021/10/18 06:28:29;;;;;;;50.57;23.23;;;6.40;99.90;;;;;;5007081;28;20252;-67
2021/10/18 06:31:48;;;;;;;47.80;22.53;;;6.50;99.90;;;;;;5002288;28;20270;-69
2021/10/18 06:35:08;;;;;;;46.30;21.27;;;6.60;99.90;;;;;;5003387;28;20243;-69
2021/10/18 06:38:29;;;;;;;50.87;23.30;;;6.60;99.90;;;;;;5004070;28;20232;-69
2021/10/18 06:41:49;;;;;;;46.47;22.37;;;6.60;99.90;;;;;;5002483;28;20213;-69
2021/10/18 06:45:12;;;;;;;45.43;22.20;;;6.60;99.90;;;;;;5003028;28;20292;-69
2021/10/18 06:48:32;;;;;;;46.90;21.83;;;6.60;99.90;;;;;;5007470;28;20278;-69
2021/10/18 06:51:53;;;;;;;45.40;21.77;;;6.70;99.90;;;;;;5006419;28;20209;-69
2021/10/18 06:55:13;;;;;;;45.67;22.53;;;6.70;99.90;;;;;;5006311;28;20233;-68
2021/10/18 06:58:33;;;;;;;47.07;21.00;;;6.80;99.90;;;;;;5002492;28;20485;-68
2021/10/18 07:02:00;;;;;;;41.80;21.53;;;6.90;99.90;;;;;;5001191;28;20275;-69
2021/10/18 07:05:21;;;;;;;41.53;21.07;;;7.00;99.90;;;;;;5002465;28;20381;-69
2021/10/18 07:08:41;;;;;;;37.40;21.07;;;7.10;99.90;;;;;;5006483;28;20812;-69
2021/10/18 07:11:59;;;;;;;42.03;21.00;;;7.10;99.90;;;;;;5012390;28;20304;-69
2021/10/18 07:15:19;;;;;;;40.33;20.30;;;7.20;99.90;;;;;;5006150;28;20223;-69
2021/10/18 07:18:39;;;;;;;41.67;21.77;;;7.40;99.90;;;;;;5008992;28;20208;-69
2021/10/18 07:21:58;;;;;;;43.07;21.57;;;7.50;99.90;;;;;;5004777;28;20204;-69
2021/10/18 07:25:19;;;;;;;39.20;20.80;;;7.60;99.90;;;;;;5003326;28;20209;-69
2021/10/18 07:28:40;;;;;;;36.83;20.40;;;7.70;99.90;;;;;;5006080;28;20232;-69
2021/10/18 07:31:59;;;;;;;42.27;19.77;;;7.80;99.90;;;;;;5007814;28;20703;-68
2021/10/18 07:35:22;;;;;;;40.30;19.73;;;8.00;99.90;;;;;;5007979;28;20321;-69
2021/10/18 07:38:41;;;;;;;37.47;20.47;;;8.10;99.90;;;;;;5004911;28;20913;-69
2021/10/18 07:41:11;;;;;;;36.50;20.13;;;8.20;99.90;;;;;;5018558;28;20726;-69
2021/10/18 07:44:30;;;;;;;41.17;20.50;;;8.20;99.90;;;;;;5014460;28;20205;-68
2021/10/18 07:47:50;;;;;;;37.40;19.10;;;8.40;99.90;;;;;;5005823;28;20403;-69
2021/10/18 07:51:11;;;;;;;44.77;20.13;;;8.50;99.90;;;;;;5007659;28;20246;-69
2021/10/18 07:54:31;;;;;;;36.13;19.33;;;8.70;99.90;;;;;;5003395;28;20270;-69
2021/10/18 07:57:51;;;;;;;33.87;18.13;;;8.80;99.90;;;;;;5006260;28;20256;-69
2021/10/18 08:01:11;;;;;;;36.77;18.53;;;8.90;99.90;;;;;;5005198;28;20248;-68
2021/10/18 08:04:30;;;;;;;36.33;17.97;;;9.00;99.90;;;;;;5006319;28;20209;-69
2021/10/18 08:07:52;;;;;;;38.90;18.10;;;9.10;99.90;;;;;;5007968;28;20323;-69
2021/10/18 08:11:11;;;;;;;27.97;16.83;;;9.10;99.90;;;;;;5007620;28;20232;-69
2021/10/18 08:14:30;;;;;;;35.07;17.17;;;9.10;99.90;;;;;;5003404;28;20630;-68
2021/10/18 08:17:51;;;;;;;29.13;16.57;;;9.10;99.90;;;;;;5004749;28;20619;-68
2021/10/18 08:21:12;;;;;;;35.33;17.13;;;9.10;99.90;;;;;;5012382;28;20255;-68
2021/10/18 08:24:35;;;;;;;28.30;15.90;;;9.20;99.90;;;;;;5001707;28;20698;-68
2021/10/18 08:27:54;;;;;;;27.43;16.50;;;9.20;99.90;;;;;;5008688;28;20632;-68
2021/10/18 08:31:14;;;;;;;29.13;17.03;;;9.30;99.90;;;;;;5008378;28;20503;-68
2021/10/18 08:34:32;;;;;;;25.20;15.10;;;9.60;99.90;;;;;;5012183;28;20774;-68
2021/10/18 08:41:35;;;;;;;30.97;18.87;;;10.10;99.90;;;;;;5004861;28;20767;-68
2021/10/18 08:44:54;;;;;;;26.43;14.57;;;10.30;99.90;;;;;;5005903;28;20247;-68
2021/10/18 08:48:12;;;;;;;24.47;14.37;;;10.50;99.90;;;;;;5008565;28;20231;-68
2021/10/18 08:51:32;;;;;;;23.43;13.57;;;10.80;99.90;;;;;;5000390;28;20201;-68
2021/10/18 08:54:51;;;;;;;21.47;13.47;;;10.90;99.90;;;;;;5002605;28;20204;-69
2021/10/18 08:58:12;;;;;;;22.70;12.50;;;11.20;99.90;;;;;;5007452;28;20539;-69
2021/10/18 09:01:42;;;;;;;17.97;11.77;;;11.40;99.90;;;;;;4998791;28;20280;-67
2021/10/18 09:05:05;;;;;;;18.07;11.80;;;11.80;99.90;;;;;;5006682;28;20292;-68
2021/10/18 09:08:34;;;;;;;20.43;11.97;;;11.80;99.90;;;;;;5005433;28;20212;-68
2021/10/18 09:11:55;;;;;;;18.80;11.47;;;12.00;99.90;;;;;;5005499;28;20200;-68
2021/10/18 09:15:23;;;;;;;21.40;12.67;;;12.00;99.90;;;;;;5006665;28;20303;-68
2021/10/18 09:18:42;;;;;;;23.20;13.97;;;12.10;99.90;;;;;;5008253;28;20335;-68
2021/10/18 09:22:04;;;;;;;16.33;10.97;;;12.10;99.90;;;;;;5010113;28;20270;-68
2021/10/18 09:25:35;;;;;;;18.73;10.53;;;12.10;99.90;;;;;;5010840;28;20295;-68
2021/10/18 09:28:55;;;;;;;17.50;10.73;;;12.30;99.90;;;;;;5004501;28;20205;-68
2021/10/18 09:32:20;;;;;;;17.73;11.13;;;12.40;99.90;;;;;;5005995;28;20592;-68
2021/10/18 09:35:41;;;;;;;16.57;10.30;;;12.40;99.90;;;;;;5001476;28;20505;-68
2021/10/18 09:39:28;;;;;;;17.83;10.37;;;12.50;99.90;;;;;;5003205;28;20305;-67
2021/10/18 09:43:01;;;;;;;18.43;10.57;;;12.60;99.90;;;;;;5006641;28;20693;-68
2021/10/18 09:46:24;;;;;;;15.03;10.30;;;12.60;99.90;;;;;;5005252;28;20219;-68
2021/10/18 10:51:46;;;;;;;12.03;8.40;;;14.80;99.90;;;;;;5003836;28;20208;-68
2021/10/18 10:55:19;;;;;;;12.60;8.73;;;15.00;99.90;;;;;;5002795;28;20530;-68
2021/10/18 10:58:49;;;;;;;16.23;8.80;;;15.10;99.90;;;;;;5006104;28;20236;-69
2021/10/18 11:02:10;;;;;;;9.93;8.13;;;15.20;99.90;;;;;;5001420;28;20226;-68
2021/10/18 11:05:29;;;;;;;10.77;7.97;;;15.30;99.90;;;;;;5006017;28;20784;-69
2021/10/18 11:08:48;;;;;;;12.30;8.60;;;15.10;99.90;;;;;;5004309;28;20761;-69
2021/10/18 11:12:11;;;;;;;11.87;9.00;;;15.00;99.90;;;;;;5006230;28;20270;-69
2021/10/18 11:15:29;;;;;;;12.83;8.90;;;14.90;99.90;;;;;;5004422;28;20409;-68
2021/10/18 11:18:54;;;;;;;15.80;9.50;;;14.90;99.90;;;;;;5005727;28;20221;-69
2021/10/18 11:22:13;;;;;;;12.47;8.63;;;14.80;99.90;;;;;;5005879;28;20913;-69
2021/10/18 11:25:38;;;;;;;14.27;8.93;;;14.90;99.90;;;;;;5005432;28;20721;-69
2021/10/18 11:29:00;;;;;;;13.47;8.50;;;14.90;99.90;;;;;;5005490;28;20255;-68
2021/10/18 11:32:20;;;;;;;12.10;9.10;;;14.90;99.90;;;;;;5004870;28;20247;-69
2021/10/18 11:35:42;;;;;;;10.43;8.43;;;14.90;99.90;;;;;;5003788;28;20679;-68
2021/10/18 11:39:12;;;;;;;17.47;8.60;;;15.00;99.90;;;;;;5006960;28;20370;-69
2021/10/18 11:42:31;;;;;;;13.27;8.73;;;15.10;99.90;;;;;;5004203;28;20247;-69
2021/10/18 11:45:53;;;;;;;13.17;9.07;;;15.20;99.90;;;;;;5003662;28;20337;-69
2021/10/18 11:49:11;;;;;;;11.23;8.70;;;15.30;99.90;;;;;;5005749;28;20213;-68
2021/10/18 11:52:39;;;;;;;9.90;8.20;;;15.40;99.90;;;;;;5004172;28;20246;-69
2021/10/18 11:56:00;;;;;;;12.80;8.50;;;15.40;99.90;;;;;;5002980;28;20421;-69
2021/10/18 11:59:20;;;;;;;12.67;8.17;;;15.60;99.90;;;;;;5005852;28;20204;-68
2021/10/18 12:02:43;;;;;;;10.77;8.50;;;15.60;99.90;;;;;;5004252;28;20465;-69
2021/10/18 12:06:03;;;;;;;15.47;8.43;;;15.60;99.90;;;;;;5002242;28;20212;-69
2021/10/18 12:09:30;;;;;;;13.80;10.00;;;15.80;99.90;;;;;;5003171;28;20287;-68
2021/10/18 12:13:13;;;;;;;15.03;9.00;;;15.70;99.90;;;;;;4999046;28;20205;-69
2021/10/18 12:16:31;;;;;;;12.97;9.33;;;16.00;99.90;;;;;;5003991;28;20615;-69
2021/10/18 12:19:50;;;;;;;12.80;8.63;;;16.00;99.90;;;;;;5011362;28;20595;-69
2021/10/18 12:23:18;;;;;;;15.43;8.90;;;16.10;99.90;;;;;;5006720;28;20233;-68
2021/10/18 12:26:43;;;;;;;11.67;8.90;;;16.30;99.90;;;;;;5003110;28;20621;-66
2021/10/18 12:30:01;;;;;;;15.53;10.73;;;16.30;99.90;;;;;;5005086;28;20252;-69
2021/10/18 12:33:21;;;;;;;12.60;8.93;;;16.20;99.90;;;;;;5002843;28;20600;-69
2021/10/18 12:37:02;;;;;;;17.10;9.97;;;16.10;99.90;;;;;;5004242;28;20872;-69
2021/10/18 12:40:23;;;;;;;13.17;9.47;;;16.40;99.90;;;;;;5003452;28;20239;-68
2021/10/18 12:43:43;;;;;;;15.10;9.37;;;16.80;99.90;;;;;;5008321;28;20839;-68
2021/10/18 12:47:02;;;;;;;13.43;8.70;;;17.20;99.90;;;;;;5005000;28;20786;-69
2021/10/18 12:50:23;;;;;;;16.23;9.20;;;17.30;99.90;;;;;;5006582;28;20472;-69
2021/10/18 12:53:43;;;;;;;20.43;8.47;;;17.30;99.90;;;;;;5009139;28;20688;-68
2021/10/18 12:57:08;;;;;;;12.43;8.50;;;17.30;99.90;;;;;;5008212;28;20238;-69
2021/10/18 13:00:31;;;;;;;10.57;8.00;;;17.30;99.90;;;;;;5007800;28;20284;-68
2021/10/18 13:03:50;;;;;;;11.43;8.40;;;17.10;99.90;;;;;;5007677;28;20218;-69
2021/10/18 13:07:13;;;;;;;11.87;8.33;;;17.00;99.90;;;;;;5010254;28;20261;-67
2021/10/18 13:10:35;;;;;;;10.50;7.87;;;17.00;99.90;;;;;;5006671;28;20300;-68
2021/10/18 13:13:54;;;;;;;10.33;7.73;;;16.90;99.90;;;;;;5007554;28;20228;-69
2021/10/18 13:17:15;;;;;;;12.03;8.97;;;16.80;99.90;;;;;;5006816;28;20421;-69
2021/10/18 13:20:34;;;;;;;9.90;8.23;;;16.80;99.90;;;;;;5009016;28;20208;-69
2021/10/18 13:23:53;;;;;;;11.13;8.33;;;16.80;99.90;;;;;;5006292;28;20613;-69
2021/10/18 13:27:14;;;;;;;11.67;8.43;;;16.90;99.90;;;;;;5005628;28;20208;-69
2021/10/18 13:30:33;;;;;;;10.47;8.30;;;16.90;99.90;;;;;;5014739;28;20221;-69
2021/10/18 13:33:53;;;;;;;10.93;7.70;;;17.00;99.90;;;;;;5007272;28;20745;-69
2021/10/18 13:37:12;;;;;;;13.53;8.37;;;17.10;99.90;;;;;;5007356;28;20214;-69
2021/10/18 13:40:33;;;;;;;11.10;7.80;;;17.20;99.90;;;;;;5005052;28;20248;-69
2021/10/18 13:43:56;;;;;;;9.50;8.27;;;17.30;99.90;;;;;;5004729;28;20355;-69
2021/10/18 13:47:18;;;;;;;14.03;7.90;;;17.40;99.90;;;;;;5005389;28;21758;-68
2021/10/18 13:50:38;;;;;;;10.27;7.80;;;17.40;99.90;;;;;;5007462;28;20210;-69
2021/10/18 13:53:57;;;;;;;10.10;7.93;;;17.40;99.90;;;;;;5003640;28;20233;-69
2021/10/18 13:57:16;;;;;;;8.83;7.20;;;17.40;99.90;;;;;;5003425;28;20887;-69
2021/10/18 14:00:37;;;;;;;9.30;7.40;;;17.40;99.90;;;;;;5008403;28;20624;-69
2021/10/18 14:03:58;;;;;;;10.40;7.13;;;17.40;99.90;;;;;;5008943;28;20862;-69
2021/10/18 14:07:19;;;;;;;8.20;7.37;;;17.40;99.90;;;;;;5005469;28;20611;-69
2021/10/18 14:10:38;;;;;;;8.37;7.20;;;17.40;99.90;;;;;;5007546;28;20602;-69
2021/10/18 14:13:59;;;;;;;10.00;6.77;;;17.40;99.90;;;;;;5006986;28;20613;-69
2021/10/18 14:17:21;;;;;;;7.60;6.40;;;17.30;99.90;;;;;;5006959;28;20414;-69
2021/10/18 14:20:41;;;;;;;10.80;6.83;;;17.30;99.90;;;;;;5009862;28;20209;-69
2021/10/18 14:24:04;;;;;;;8.73;7.10;;;17.20;99.90;;;;;;5004335;28;20229;-69
2021/10/18 14:27:23;;;;;;;17.23;6.47;;;17.20;99.90;;;;;;5003003;28;20527;-70
2021/10/18 14:30:42;;;;;;;8.27;5.80;;;17.20;99.90;;;;;;5001661;28;20973;-69
2021/10/18 14:34:01;;;;;;;8.70;6.43;;;17.20;99.90;;;;;;5003268;28;20971;-69
2021/10/18 14:37:19;;;;;;;6.80;6.07;;;17.30;99.90;;;;;;5004464;28;20222;-69
2021/10/18 14:40:41;;;;;;;6.17;5.53;;;17.30;99.90;;;;;;5006144;28;20513;-69
2021/10/18 14:44:01;;;;;;;7.13;5.97;;;17.40;99.90;;;;;;5006429;28;20226;-67
2021/10/18 14:47:20;;;;;;;6.77;5.73;;;17.40;99.90;;;;;;5009445;28;20317;-69
2021/10/18 14:50:40;;;;;;;6.50;5.77;;;17.40;99.90;;;;;;5014530;28;20245;-66
2021/10/18 14:54:03;;;;;;;7.37;5.83;;;17.40;99.90;;;;;;5013378;28;20199;-69
2021/10/18 14:57:24;;;;;;;7.50;6.50;;;17.30;99.90;;;;;;5013180;28;20214;-69
2021/10/18 15:00:43;;;;;;;7.07;6.10;;;17.30;99.90;;;;;;5015955;28;20291;-67
2021/10/18 15:04:05;;;;;;;9.67;6.83;;;17.20;99.90;;;;;;5011964;28;20663;-69
2021/10/18 15:07:24;;;;;;;7.20;6.60;;;17.20;99.90;;;;;;5024022;28;20229;-68
2021/10/18 15:10:42;;;;;;;11.30;6.13;;;17.10;99.90;;;;;;5021226;28;20197;-69
2021/10/18 15:14:04;;;;;;;8.33;6.43;;;16.90;99.90;;;;;;5014273;28;20286;-69
2021/10/18 15:17:23;;;;;;;7.27;6.50;;;16.80;99.90;;;;;;5012907;28;20220;-69
2021/10/18 15:20:42;;;;;;;11.30;6.80;;;16.60;99.90;;;;;;5020785;28;20743;-69
2021/10/18 15:24:02;;;;;;;10.97;6.97;;;16.50;99.90;;;;;;5020803;28;20315;-69
2021/10/18 15:27:21;;;;;;;7.67;6.87;;;16.50;99.90;;;;;;5022829;28;20255;-70
2021/10/18 15:30:41;;;;;;;9.40;7.00;;;16.40;99.90;;;;;;5019106;28;20205;-70
2021/10/18 15:33:59;;;;;;;11.30;7.67;;;16.30;99.90;;;;;;5018499;28;20204;-69
2021/10/18 15:37:18;;;;;;;12.80;7.43;;;16.30;99.90;;;;;;5023513;28;20200;-69
2021/10/18 15:40:38;;;;;;;8.03;7.03;;;16.20;99.90;;;;;;5013538;28;20201;-70
2021/10/18 15:43:57;;;;;;;12.27;7.33;;;16.20;99.90;;;;;;5012555;28;20730;-69
2021/10/18 15:47:19;;;;;;;8.63;6.97;;;16.20;99.90;;;;;;5020962;28;20724;-69
2021/10/18 15:50:37;;;;;;;10.67;7.10;;;16.10;99.90;;;;;;5012477;28;20719;-69
2021/10/18 15:53:56;;;;;;;10.10;7.43;;;16.10;99.90;;;;;;5014228;28;20231;-69
2021/10/18 15:57:15;;;;;;;8.10;7.27;;;16.00;99.90;;;;;;5017835;28;20217;-69
2021/10/18 16:00:35;;;;;;;10.03;8.30;;;16.00;99.90;;;;;;5015320;28;20243;-69
2021/10/18 16:03:56;;;;;;;10.80;8.70;;;15.90;99.90;;;;;;5015532;28;20647;-69
2021/10/18 16:07:14;;;;;;;15.20;8.07;;;15.80;99.90;;;;;;5012186;28;20485;-69
2021/10/18 16:10:34;;;;;;;11.73;7.87;;;15.80;99.90;;;;;;5012397;28;20297;-69
2021/10/18 16:13:52;;;;;;;9.23;7.47;;;15.80;99.90;;;;;;5012808;28;20293;-69
2021/10/18 16:17:12;;;;;;;11.53;8.70;;;15.70;99.90;;;;;;5016363;28;20200;-69
2021/10/18 16:20:32;;;;;;;13.90;10.00;;;15.60;99.90;;;;;;5012808;28;20275;-69
2021/10/18 16:23:52;;;;;;;13.17;8.20;;;15.50;99.90;;;;;;5022084;28;20749;-69
2021/10/18 16:27:13;;;;;;;11.10;8.37;;;15.50;99.90;;;;;;5015560;28;20293;-69